Time;durP1;ratioP1;P1;durP2;ratioP2;P2;SDS_P1;SDS_P2;PMS_P1;PMS_P2;Temp;Humidity;BMP_temperature;BMP_pressure;BME280_temperature;BME280_humidity;BME280_pressure;Samples;Min_cycle;Max_cycle;Signal;HPM_P1;HPM_P2
2021/08/09 04:00:50;;;;;;;4.50;4.10;;;14.30;99.90;;;;;;5814065;23;20580;-67
2021/08/09 04:03:17;;;;;;;5.30;4.67;;;14.30;99.90;;;;;;4996595;28;20453;-68
2021/08/09 04:05:44;;;;;;;12.13;4.97;;;14.30;99.90;;;;;;4996936;28;20961;-68
2021/08/09 04:08:10;;;;;;;6.83;4.00;;;14.30;99.90;;;;;;4996385;28;20472;-68
2021/08/09 04:10:39;;;;;;;5.43;4.53;;;14.30;99.90;;;;;;4996254;28;20474;-67
2021/08/09 04:13:05;;;;;;;7.67;4.77;;;14.30;99.90;;;;;;4996203;28;20461;-67
2021/08/09 04:15:32;;;;;;;9.47;4.17;;;14.30;99.90;;;;;;4996151;28;20478;-67
2021/08/09 04:18:00;;;;;;;4.20;3.90;;;14.30;99.90;;;;;;4996202;28;20458;-67
2021/08/09 04:20:27;;;;;;;7.53;4.90;;;14.30;99.90;;;;;;4996556;28;20453;-67
2021/08/09 04:22:53;;;;;;;5.07;4.50;;;14.30;99.90;;;;;;4996205;28;20461;-67
2021/08/09 04:25:20;;;;;;;4.47;4.10;;;14.20;99.90;;;;;;4996073;28;20631;-67
2021/08/09 04:27:47;;;;;;;8.80;4.60;;;14.20;99.90;;;;;;4995690;28;20457;-67
2021/08/09 04:30:13;;;;;;;4.57;4.17;;;14.10;99.90;;;;;;4995981;28;20461;-67
2021/08/09 04:32:41;;;;;;;3.77;3.50;;;14.10;99.90;;;;;;4995868;28;20462;-67
2021/08/09 04:35:11;;;;;;;8.50;3.70;;;14.10;99.90;;;;;;4995467;28;20480;-67
2021/08/09 04:37:40;;;;;;;4.23;3.60;;;14.00;99.90;;;;;;4996421;28;20866;-67
2021/08/09 04:40:08;;;;;;;4.03;3.67;;;13.90;99.90;;;;;;4997004;28;20454;-67
2021/08/09 04:42:35;;;;;;;4.57;3.10;;;13.80;99.90;;;;;;4995450;28;20978;-68
2021/08/09 04:45:01;;;;;;;6.07;3.40;;;13.70;99.90;;;;;;4995613;28;20817;-67
2021/08/09 04:47:28;;;;;;;6.37;4.37;;;13.60;99.90;;;;;;4995703;28;20438;-68
2021/08/09 04:49:55;;;;;;;4.00;3.57;;;13.60;99.90;;;;;;4994943;28;20805;-68
2021/08/09 04:52:23;;;;;;;5.50;4.00;;;13.60;99.90;;;;;;4995312;28;20520;-68
2021/08/09 04:54:50;;;;;;;5.90;3.67;;;13.60;99.90;;;;;;4995402;28;20438;-67
2021/08/09 04:57:16;;;;;;;4.03;3.43;;;13.60;99.90;;;;;;4995963;28;20775;-68
2021/08/09 04:59:43;;;;;;;5.63;3.80;;;13.70;99.90;;;;;;4995440;28;20441;-67
2021/08/09 05:02:10;;;;;;;4.00;3.50;;;13.80;99.90;;;;;;4994997;28;20488;-67
2021/08/09 05:04:37;;;;;;;4.50;4.10;;;13.80;99.90;;;;;;4996025;28;20453;-67
2021/08/09 05:07:05;;;;;;;4.33;3.63;;;13.90;99.90;;;;;;4995215;28;20504;-67
2021/08/09 05:09:34;;;;;;;3.93;3.63;;;13.90;99.90;;;;;;4995258;28;20516;-67
2021/08/09 05:12:01;;;;;;;5.63;3.87;;;14.00;99.90;;;;;;4995081;28;20474;-65
2021/08/09 05:14:28;;;;;;;3.70;3.40;;;14.20;99.90;;;;;;4994694;28;20820;-67
2021/08/09 05:16:55;;;;;;;4.10;3.83;;;14.20;99.90;;;;;;4994710;28;20485;-67
2021/08/09 05:19:22;;;;;;;5.67;3.97;;;14.30;99.90;;;;;;4994577;28;20453;-67
2021/08/09 05:21:48;;;;;;;4.80;3.93;;;14.20;99.90;;;;;;4994499;28;21014;-67
2021/08/09 05:24:15;;;;;;;4.00;3.60;;;14.30;99.90;;;;;;4994776;28;20453;-67
2021/08/09 05:26:43;;;;;;;3.53;2.90;;;14.30;99.90;;;;;;4994510;28;20939;-67
2021/08/09 05:29:10;;;;;;;3.93;3.53;;;14.30;99.90;;;;;;4994889;28;20457;-67
2021/08/09 05:31:38;;;;;;;3.67;3.30;;;14.20;99.90;;;;;;4994659;28;20473;-67
2021/08/09 05:34:05;;;;;;;4.37;3.13;;;14.20;99.90;;;;;;4994588;28;20551;-66
2021/08/09 05:36:32;;;;;;;3.50;3.20;;;14.20;99.90;;;;;;4994492;28;20489;-67
2021/08/09 05:39:00;;;;;;;3.03;2.83;;;14.40;99.90;;;;;;4994560;28;20458;-67
2021/08/09 05:41:26;;;;;;;5.00;3.30;;;14.50;99.90;;;;;;4994437;28;20552;-67
2021/08/09 05:43:55;;;;;;;5.27;3.40;;;14.80;99.90;;;;;;4994208;28;20497;-67
2021/08/09 05:46:21;;;;;;;3.50;3.30;;;15.00;99.90;;;;;;4994509;28;20446;-67
2021/08/09 05:48:48;;;;;;;3.50;3.20;;;15.30;99.90;;;;;;4994207;28;20943;-67
2021/08/09 05:51:15;;;;;;;4.57;3.50;;;15.70;99.90;;;;;;4994416;28;20473;-67
2021/08/09 05:53:41;;;;;;;3.23;2.93;;;16.00;99.90;;;;;;4994453;28;20460;-67
2021/08/09 05:56:08;;;;;;;6.13;3.20;;;16.40;99.90;;;;;;4994465;28;20478;-67
2021/08/09 05:58:36;;;;;;;3.50;3.10;;;16.70;99.90;;;;;;4994422;28;20465;-67
2021/08/09 06:01:04;;;;;;;3.30;3.00;;;17.00;99.90;;;;;;4994333;28;20481;-67
2021/08/09 06:03:31;;;;;;;3.03;2.70;;;17.20;99.90;;;;;;4994168;28;20981;-67
2021/08/09 06:05:58;;;;;;;3.63;2.90;;;17.30;99.90;;;;;;4994355;28;20465;-67
2021/08/09 06:08:25;;;;;;;3.13;2.83;;;17.70;99.90;;;;;;4994542;28;20464;-67
2021/08/09 06:10:52;;;;;;;3.30;2.73;;;18.00;99.90;;;;;;4995177;28;20549;-67
2021/08/09 06:13:18;;;;;;;3.00;2.80;;;18.40;99.90;;;;;;4994097;28;20449;-67
2021/08/09 06:15:45;;;;;;;4.17;3.10;;;18.60;99.90;;;;;;4994186;28;20466;-67
2021/08/09 06:18:13;;;;;;;3.37;2.70;;;19.10;99.90;;;;;;4994350;28;20446;-67
2021/08/09 06:20:40;;;;;;;3.30;3.00;;;19.30;99.90;;;;;;4994304;28;20844;-67
2021/08/09 06:23:06;;;;;;;3.33;2.60;;;19.50;99.90;;;;;;4994301;28;20494;-68
2021/08/09 06:25:33;;;;;;;2.93;2.53;;;19.80;99.90;;;;;;4994416;28;20462;-67
2021/08/09 06:28:00;;;;;;;3.93;2.80;;;20.20;99.90;;;;;;5004248;28;20461;-67
2021/08/09 06:30:27;;;;;;;4.33;3.10;;;20.50;99.90;;;;;;5004869;28;20457;-68
2021/08/09 06:32:53;;;;;;;4.20;3.23;;;20.50;99.90;;;;;;5004841;28;20457;-64
2021/08/09 06:35:21;;;;;;;3.67;3.37;;;20.70;99.90;;;;;;5008558;28;20437;-64
2021/08/09 06:37:48;;;;;;;2.93;2.73;;;20.80;99.90;;;;;;5006163;28;20456;-65
2021/08/09 06:40:15;;;;;;;6.13;2.60;;;21.20;99.90;;;;;;5005729;28;20457;-65
2021/08/09 06:42:42;;;;;;;3.00;2.37;;;21.30;99.90;;;;;;4996124;28;20464;-65
2021/08/09 06:45:10;;;;;;;2.50;2.30;;;21.60;99.90;;;;;;4995010;28;20454;-65
2021/08/09 06:47:36;;;;;;;3.23;2.70;;;21.80;99.90;;;;;;4994801;28;20454;-65
2021/08/09 06:50:04;;;;;;;3.63;3.27;;;22.00;99.90;;;;;;4994373;28;20460;-65
2021/08/09 06:52:34;;;;;;;8.20;2.63;;;22.20;99.90;;;;;;4995010;28;20474;-69
2021/08/09 06:55:01;;;;;;;3.20;2.40;;;22.30;99.90;;;;;;4994139;28;20445;-64
2021/08/09 06:57:27;;;;;;;3.80;2.63;;;22.60;99.90;;;;;;4993820;28;20482;-65
2021/08/09 06:59:54;;;;;;;6.50;2.33;;;22.70;99.90;;;;;;4993946;28;20481;-64
2021/08/09 07:02:21;;;;;;;7.67;2.83;;;23.00;99.90;;;;;;4993469;28;20489;-64
2021/08/09 07:04:47;;;;;;;2.57;2.37;;;23.10;99.90;;;;;;4993709;28;20460;-65
2021/08/09 07:07:14;;;;;;;3.07;2.60;;;23.30;99.90;;;;;;4993796;28;20809;-65
2021/08/09 07:09:42;;;;;;;3.77;2.60;;;23.40;99.90;;;;;;4993655;28;20457;-65
2021/08/09 07:12:10;;;;;;;3.10;2.70;;;23.70;99.90;;;;;;4993759;28;20511;-65
2021/08/09 07:14:37;;;;;;;4.60;2.40;;;24.10;99.90;;;;;;4995830;28;20458;-65
2021/08/09 07:17:04;;;;;;;2.30;2.10;;;24.30;99.90;;;;;;4997266;28;20484;-65
2021/08/09 07:19:31;;;;;;;2.60;2.30;;;24.10;99.90;;;;;;4997318;28;20457;-65
2021/08/09 07:21:57;;;;;;;4.47;2.37;;;24.00;99.90;;;;;;4997071;28;20481;-65
2021/08/09 07:24:24;;;;;;;4.23;2.90;;;23.90;99.90;;;;;;4997263;28;20462;-65
2021/08/09 07:26:52;;;;;;;2.57;2.37;;;23.90;99.90;;;;;;4997141;28;20473;-65
2021/08/09 07:29:19;;;;;;;4.97;2.57;;;24.30;99.90;;;;;;4997090;28;20454;-65
2021/08/09 07:31:46;;;;;;;3.83;2.53;;;24.70;99.90;;;;;;4996661;28;20908;-65
2021/08/09 07:34:12;;;;;;;7.00;2.67;;;24.50;99.90;;;;;;4997008;28;20461;-65
2021/08/09 07:36:39;;;;;;;3.17;2.23;;;24.20;99.90;;;;;;4997057;28;20516;-65
2021/08/09 07:39:06;;;;;;;3.53;2.37;;;23.90;99.90;;;;;;4996767;28;20943;-67
2021/08/09 07:41:33;;;;;;;3.40;2.93;;;23.30;99.90;;;;;;4996933;28;20469;-66
2021/08/09 07:44:01;;;;;;;3.60;2.73;;;23.30;99.90;;;;;;4996693;28;20807;-66
2021/08/09 07:46:28;;;;;;;5.37;2.40;;;23.50;99.90;;;;;;4997625;28;20465;-66
2021/08/09 07:48:55;;;;;;;2.53;2.33;;;24.20;99.90;;;;;;4996597;28;20453;-66
2021/08/09 07:51:22;;;;;;;1.87;1.60;;;25.00;99.90;;;;;;4996575;28;20482;-66
2021/08/09 07:53:48;;;;;;;4.37;2.23;;;25.60;97.70;;;;;;4996511;28;20814;-66
2021/08/09 07:56:15;;;;;;;2.67;1.97;;;26.30;97.50;;;;;;4996355;28;20480;-66
2021/08/09 07:58:42;;;;;;;5.03;2.40;;;26.60;95.40;;;;;;4996159;28;20989;-67
2021/08/09 08:01:10;;;;;;;1.93;1.80;;;27.20;94.10;;;;;;4996145;28;20901;-67
2021/08/09 08:03:37;;;;;;;1.73;1.63;;;28.00;92.90;;;;;;4996498;28;20458;-66
2021/08/09 08:06:04;;;;;;;3.13;2.27;;;28.60;91.80;;;;;;4996402;28;20461;-66
2021/08/09 08:08:30;;;;;;;3.43;2.33;;;28.90;88.30;;;;;;4996286;28;20461;-65
2021/08/09 08:10:57;;;;;;;4.57;2.10;;;29.20;86.60;;;;;;4996625;28;20484;-67
2021/08/09 08:13:24;;;;;;;2.50;1.80;;;29.20;87.80;;;;;;4996282;28;20454;-67
2021/08/09 08:15:50;;;;;;;4.33;2.17;;;29.80;83.70;;;;;;4995944;28;20949;-67
2021/08/09 08:18:18;;;;;;;2.70;2.07;;;30.00;80.70;;;;;;4995891;28;20819;-67
2021/08/09 08:20:47;;;;;;;2.60;2.27;;;30.30;80.10;;;;;;4995978;28;20484;-66
2021/08/09 08:23:14;;;;;;;2.50;1.80;;;30.70;79.90;;;;;;4996042;28;20446;-66
2021/08/09 08:25:40;;;;;;;2.80;2.13;;;31.00;75.80;;;;;;4994913;28;20458;-67
2021/08/09 08:28:07;;;;;;;3.20;2.00;;;30.80;74.70;;;;;;4995650;28;20549;-66
2021/08/09 08:30:34;;;;;;;2.47;2.00;;;30.90;74.30;;;;;;4995790;28;20478;-67
2021/08/09 08:33:01;;;;;;;1.37;1.30;;;30.60;76.10;;;;;;4995941;28;20453;-67
2021/08/09 08:35:29;;;;;;;5.47;1.87;;;30.80;72.50;;;;;;4995879;28;20458;-67
2021/08/09 08:37:56;;;;;;;2.47;1.80;;;30.70;70.00;;;;;;4995854;28;20482;-67
2021/08/09 08:40:23;;;;;;;1.30;1.20;;;30.80;70.70;;;;;;4995654;28;20453;-67
2021/08/09 08:42:49;;;;;;;2.00;1.43;;;31.20;69.80;;;;;;4995706;28;20462;-67
2021/08/09 08:45:21;;;;;;;1.87;1.77;;;30.90;66.00;;;;;;5003012;28;20458;-67
2021/08/09 08:47:48;;;;;;;3.40;1.53;;;31.10;66.70;;;;;;5007189;28;20441;-67
2021/08/09 08:50:17;;;;;;;4.43;1.70;;;31.10;65.30;;;;;;5007582;28;20425;-67
2021/08/09 08:52:47;;;;;;;4.10;1.47;;;31.20;64.20;;;;;;5001266;28;20457;-67
2021/08/09 08:55:15;;;;;;;1.30;1.20;;;30.40;64.90;;;;;;4996070;28;20938;-67
2021/08/09 08:57:42;;;;;;;3.20;1.50;;;30.10;64.30;;;;;;4996139;28;20482;-67
2021/08/09 09:00:09;;;;;;;1.50;1.40;;;29.60;66.00;;;;;;4995896;28;20856;-66
2021/08/09 09:02:38;;;;;;;1.13;1.13;;;29.60;64.70;;;;;;4995615;28;20450;-66
2021/08/09 09:05:14;;;;;;;4.33;1.53;;;30.00;66.50;;;;;;4995480;28;20450;-66
2021/08/09 09:07:43;;;;;;;1.63;1.30;;;30.50;65.70;;;;;;4995701;28;20504;-66
2021/08/09 09:10:16;;;;;;;3.10;1.70;;;30.30;65.30;;;;;;4995514;28;20461;-66
2021/08/09 09:12:43;;;;;;;1.40;1.30;;;30.70;65.40;;;;;;4995713;28;20460;-67
2021/08/09 09:15:12;;;;;;;1.63;1.33;;;31.30;62.20;;;;;;4995033;28;20450;-67
2021/08/09 09:17:40;;;;;;;2.80;1.40;;;31.60;61.90;;;;;;4995019;28;20560;-67
2021/08/09 09:20:23;;;;;;;1.40;1.30;;;31.30;61.10;;;;;;4995089;28;20450;-67
2021/08/09 09:22:49;;;;;;;1.63;1.20;;;30.80;61.40;;;;;;4995027;28;20442;-67
2021/08/09 09:25:31;;;;;;;1.70;1.30;;;30.30;62.80;;;;;;4994992;28;20789;-67
2021/08/09 09:27:58;;;;;;;2.90;1.60;;;30.20;64.90;;;;;;4994681;28;20922;-66
2021/08/09 09:30:29;;;;;;;1.40;1.40;;;29.70;64.60;;;;;;4994764;28;20480;-67
2021/08/09 09:33:00;;;;;;;2.43;1.53;;;29.50;66.10;;;;;;4994858;28;20457;-66
2021/08/09 09:35:27;;;;;;;2.17;1.70;;;30.00;65.80;;;;;;4994618;28;21040;-66
2021/08/09 09:37:54;;;;;;;1.30;1.20;;;30.50;64.10;;;;;;4994551;28;20477;-66
2021/08/09 09:40:23;;;;;;;3.00;1.70;;;30.90;63.50;;;;;;4994805;28;20513;-67
2021/08/09 09:42:50;;;;;;;1.27;1.17;;;31.30;63.90;;;;;;4994691;28;20812;-67
2021/08/09 09:45:24;;;;;;;3.60;1.60;;;31.80;63.10;;;;;;4994559;28;20464;-67
2021/08/09 09:48:13;;;;;;;1.67;1.57;;;32.30;65.60;;;;;;4994195;28;20457;-68
2021/08/09 09:50:42;;;;;;;1.63;1.53;;;33.10;59.50;;;;;;4991702;28;20478;-67
2021/08/09 09:53:16;;;;;;;1.77;1.40;;;33.60;57.80;;;;;;4994585;28;20449;-67
2021/08/09 09:55:47;;;;;;;1.27;1.20;;;34.40;58.60;;;;;;4994652;28;20436;-67
2021/08/09 09:58:14;;;;;;;1.77;1.67;;;34.50;55.10;;;;;;4994256;28;20962;-67
2021/08/09 10:00:42;;;;;;;1.70;1.53;;;33.90;55.60;;;;;;4994164;28;20492;-67
2021/08/09 10:03:10;;;;;;;1.47;1.37;;;33.40;57.90;;;;;;4994491;28;20869;-67
2021/08/09 10:05:40;;;;;;;1.73;1.43;;;33.70;56.90;;;;;;4994509;28;20457;-67
2021/08/09 10:08:09;;;;;;;1.23;1.13;;;34.20;55.70;;;;;;4994418;28;20450;-67
2021/08/09 10:10:38;;;;;;;2.07;1.43;;;34.40;54.50;;;;;;4994323;28;20477;-67
2021/08/09 10:13:07;;;;;;;0.90;0.90;;;34.40;53.30;;;;;;4994281;28;20457;-67
2021/08/09 10:15:33;;;;;;;1.13;1.03;;;34.60;52.80;;;;;;4994280;28;20885;-67
2021/08/09 10:18:01;;;;;;;1.37;1.27;;;34.90;51.60;;;;;;4994182;28;20477;-67
2021/08/09 10:20:28;;;;;;;2.37;1.40;;;34.40;51.90;;;;;;4994174;28;20457;-67
2021/08/09 10:22:56;;;;;;;1.47;1.03;;;34.00;52.70;;;;;;4994252;28;20457;-67
2021/08/09 10:25:47;;;;;;;2.07;1.13;;;33.70;52.80;;;;;;4994246;28;20481;-67
2021/08/09 10:28:16;;;;;;;1.90;1.03;;;33.60;51.80;;;;;;4994679;28;20444;-67
2021/08/09 10:30:42;;;;;;;1.50;1.10;;;33.50;51.90;;;;;;4993778;28;20845;-67
2021/08/09 10:33:10;;;;;;;1.50;1.40;;;33.60;51.90;;;;;;4994035;28;20794;-66
2021/08/09 10:36:02;;;;;;;1.30;1.20;;;33.40;54.60;;;;;;4994148;28;20877;-66
2021/08/09 10:38:43;;;;;;;1.30;1.20;;;33.70;52.60;;;;;;4993783;28;21016;-66
2021/08/09 10:41:38;;;;;;;1.83;1.37;;;34.10;53.10;;;;;;4994710;28;20473;-66
2021/08/09 10:44:26;;;;;;;1.53;1.30;;;34.60;51.30;;;;;;4996482;28;20434;-67
2021/08/09 10:46:54;;;;;;;2.00;1.50;;;34.30;51.00;;;;;;4994269;28;20445;-67
2021/08/09 10:49:57;;;;;;;2.17;1.30;;;34.00;51.30;;;;;;4996100;28;20441;-66
2021/08/09 10:52:46;;;;;;;5.93;4.40;;;33.60;51.20;;;;;;4998245;28;20472;-66
2021/08/09 10:55:44;;;;;;;1.70;1.60;;;32.80;52.30;;;;;;4997917;28;20434;-67
2021/08/09 10:58:26;;;;;;;3.30;2.53;;;31.70;54.10;;;;;;4998142;28;20472;-66
2021/08/09 11:00:57;;;;;;;5.13;4.17;;;30.80;55.20;;;;;;4997087;28;20839;-67
2021/08/09 11:03:24;;;;;;;5.63;1.40;;;29.90;56.80;;;;;;4997518;28;20507;-67
2021/08/09 11:05:51;;;;;;;1.63;1.40;;;29.20;58.90;;;;;;4997194;28;20969;-67
2021/08/09 11:08:31;;;;;;;4.13;3.40;;;28.70;62.70;;;;;;4997377;28;20459;-66
2021/08/09 11:11:00;;;;;;;2.27;2.07;;;28.70;64.90;;;;;;4997292;28;20477;-66
2021/08/09 11:13:27;;;;;;;1.63;1.53;;;29.00;63.50;;;;;;4997244;28;20454;-65
2021/08/09 11:15:56;;;;;;;2.50;1.40;;;29.10;64.40;;;;;;4997047;28;20955;-67
2021/08/09 11:18:24;;;;;;;1.60;1.50;;;29.10;64.40;;;;;;4997191;28;20488;-68
2021/08/09 11:21:02;;;;;;;3.43;1.83;;;29.00;64.40;;;;;;4997168;28;20473;-68
2021/08/09 11:23:35;;;;;;;3.83;1.73;;;28.90;64.40;;;;;;4997189;28;20438;-65
2021/08/09 11:26:02;;;;;;;1.63;1.30;;;28.50;64.40;;;;;;4997242;28;20442;-66
2021/08/09 11:28:29;;;;;;;2.60;1.37;;;28.20;65.40;;;;;;4997106;28;20453;-65
2021/08/09 11:30:57;;;;;;;1.90;1.70;;;27.70;66.40;;;;;;4997037;28;20477;-66
2021/08/09 11:33:29;;;;;;;3.00;1.30;;;27.50;68.60;;;;;;4996740;28;20524;-66
2021/08/09 11:35:58;;;;;;;1.90;1.37;;;27.30;66.90;;;;;;4996681;28;20949;-67
2021/08/09 11:38:25;;;;;;;2.30;1.50;;;27.20;69.70;;;;;;4996937;28;20478;-66
2021/08/09 11:40:54;;;;;;;1.30;1.20;;;27.00;70.30;;;;;;4996917;28;20499;-67
2021/08/09 11:43:26;;;;;;;2.30;1.97;;;27.50;69.80;;;;;;4996902;28;20460;-67
2021/08/09 11:45:54;;;;;;;1.60;1.37;;;28.10;66.10;;;;;;4996424;28;21029;-67
2021/08/09 11:48:29;;;;;;;2.77;1.33;;;28.40;64.60;;;;;;4996861;28;20461;-66
2021/08/09 11:50:59;;;;;;;3.17;1.40;;;28.60;64.10;;;;;;4996674;28;20473;-67
2021/08/09 11:53:26;;;;;;;2.77;1.57;;;28.70;65.70;;;;;;4996599;28;20448;-67
2021/08/09 11:56:10;;;;;;;1.83;1.60;;;29.00;63.30;;;;;;4996630;28;20527;-67
2021/08/09 11:58:38;;;;;;;4.27;1.63;;;29.40;65.60;;;;;;4996676;28;20493;-67
2021/08/09 12:01:05;;;;;;;2.00;1.50;;;29.80;62.60;;;;;;4995980;28;20493;-67
2021/08/09 12:03:35;;;;;;;1.53;1.43;;;30.00;63.30;;;;;;4996612;28;20508;-67
2021/08/09 12:06:21;;;;;;;1.30;1.20;;;29.90;62.40;;;;;;4996533;28;20460;-67
2021/08/09 12:08:54;;;;;;;1.33;1.07;;;30.10;60.00;;;;;;4996553;28;20492;-68
2021/08/09 12:11:25;;;;;;;1.60;1.20;;;30.30;62.10;;;;;;4996914;28;20484;-67
2021/08/09 12:14:07;;;;;;;1.47;1.30;;;30.10;59.50;;;;;;5002323;28;20464;-66
2021/08/09 12:16:48;;;;;;;3.90;1.60;;;29.80;59.50;;;;;;4996385;28;20454;-66
2021/08/09 12:19:18;;;;;;;2.40;1.70;;;29.30;61.40;;;;;;4996828;28;20462;-67
2021/08/09 12:21:45;;;;;;;2.37;1.43;;;29.40;61.20;;;;;;4996334;28;20617;-65
2021/08/09 12:24:21;;;;;;;2.80;1.77;;;29.00;59.90;;;;;;4996176;28;20457;-66
2021/08/09 12:26:49;;;;;;;1.93;1.80;;;28.60;60.20;;;;;;4996647;28;20549;-66
2021/08/09 12:29:21;;;;;;;2.00;1.80;;;28.30;61.90;;;;;;4995826;28;20915;-66
2021/08/09 12:31:49;;;;;;;2.30;1.83;;;27.80;65.20;;;;;;4996017;28;20481;-66
2021/08/09 12:34:21;;;;;;;1.60;1.50;;;27.60;67.30;;;;;;4996000;28;20457;-66
2021/08/09 12:36:47;;;;;;;1.60;1.50;;;27.40;67.40;;;;;;4995939;28;20446;-66
2021/08/09 12:39:34;;;;;;;5.30;2.80;;;27.40;70.20;;;;;;4995788;28;20484;-66
2021/08/09 12:42:13;;;;;;;3.90;2.20;;;27.40;69.70;;;;;;4995788;28;20478;-66
2021/08/09 12:44:39;;;;;;;1.63;1.50;;;27.40;71.30;;;;;;4995832;28;20438;-66
2021/08/09 12:47:06;;;;;;;2.10;1.53;;;27.00;68.10;;;;;;4995690;28;20571;-66
2021/08/09 12:49:34;;;;;;;3.30;1.50;;;26.80;68.60;;;;;;4995713;28;20461;-66
2021/08/09 12:52:01;;;;;;;2.60;1.50;;;27.00;71.80;;;;;;4995606;28;20474;-65
2021/08/09 12:54:29;;;;;;;1.63;1.53;;;27.10;70.30;;;;;;4995488;28;20825;-65
2021/08/09 12:56:57;;;;;;;2.77;1.73;;;27.30;70.90;;;;;;4995428;28;20458;-65
2021/08/09 12:59:24;;;;;;;2.00;1.60;;;27.70;70.30;;;;;;4995405;28;20474;-66
2021/08/09 13:01:50;;;;;;;1.17;1.17;;;28.20;68.90;;;;;;4995078;28;20493;-65
2021/08/09 13:04:17;;;;;;;1.50;1.40;;;28.60;68.30;;;;;;4995299;28;20530;-65
2021/08/09 13:06:45;;;;;;;4.00;1.60;;;28.90;67.40;;;;;;4995059;28;20454;-65
2021/08/09 13:09:12;;;;;;;2.00;1.50;;;29.20;62.00;;;;;;4995436;28;20445;-65
2021/08/09 13:11:39;;;;;;;1.67;1.57;;;29.50;67.60;;;;;;4994689;28;20536;-65
2021/08/09 13:14:06;;;;;;;1.43;1.30;;;29.50;64.80;;;;;;4995338;28;20458;-65
2021/08/09 13:16:34;;;;;;;2.57;1.70;;;29.10;63.10;;;;;;4995049;28;20458;-65
2021/08/09 13:19:01;;;;;;;1.77;1.50;;;28.80;66.30;;;;;;4994702;28;20478;-65
2021/08/09 13:21:29;;;;;;;2.03;1.60;;;29.00;67.80;;;;;;4994807;28;20481;-65
2021/08/09 13:23:57;;;;;;;2.00;1.73;;;29.00;65.80;;;;;;4994861;28;20508;-65
2021/08/09 13:26:26;;;;;;;1.67;1.57;;;29.00;62.00;;;;;;4994418;28;20819;-65
2021/08/09 13:28:53;;;;;;;1.80;1.20;;;28.90;69.40;;;;;;4994830;28;20450;-65
2021/08/09 13:31:19;;;;;;;2.80;1.60;;;28.80;66.80;;;;;;4994727;28;20477;-65
2021/08/09 13:33:48;;;;;;;1.70;1.60;;;28.90;69.20;;;;;;4994874;28;20465;-65
2021/08/09 13:36:15;;;;;;;2.00;1.87;;;29.10;68.70;;;;;;4994868;28;20462;-65
2021/08/09 13:38:42;;;;;;;1.83;1.60;;;29.10;66.50;;;;;;4994602;28;20571;-66
2021/08/09 13:41:10;;;;;;;1.83;1.60;;;29.10;66.10;;;;;;4994710;28;20473;-66
2021/08/09 13:43:37;;;;;;;1.60;1.50;;;29.00;66.00;;;;;;4996013;28;20449;-66
2021/08/09 13:46:04;;;;;;;2.73;1.63;;;29.10;66.30;;;;;;4999945;28;20978;-66
2021/08/09 13:48:30;;;;;;;2.30;1.47;;;29.10;65.20;;;;;;4994433;28;20449;-65
2021/08/09 13:50:59;;;;;;;1.80;1.70;;;28.90;63.20;;;;;;4994335;28;20840;-65
2021/08/09 13:53:25;;;;;;;1.73;1.63;;;29.00;62.30;;;;;;4994640;28;20461;-65
2021/08/09 13:55:52;;;;;;;2.20;1.80;;;28.80;64.40;;;;;;4994375;28;20450;-65
2021/08/09 13:58:20;;;;;;;3.40;1.73;;;28.90;69.40;;;;;;4994611;28;20501;-65
2021/08/09 14:00:47;;;;;;;1.40;1.30;;;29.10;64.90;;;;;;4994100;28;20493;-65
2021/08/09 14:03:14;;;;;;;2.80;1.57;;;29.20;62.70;;;;;;4994471;28;20454;-65
2021/08/09 14:05:41;;;;;;;1.57;1.47;;;29.40;67.00;;;;;;4994465;28;20466;-66
2021/08/09 14:08:08;;;;;;;5.77;1.67;;;29.70;68.70;;;;;;4994412;28;20450;-66
2021/08/09 14:10:35;;;;;;;1.60;1.50;;;29.90;60.20;;;;;;4994135;28;20480;-65
2021/08/09 14:13:01;;;;;;;2.07;1.97;;;29.60;58.30;;;;;;4994072;28;20458;-66
2021/08/09 14:15:29;;;;;;;1.87;1.70;;;29.50;59.40;;;;;;4994386;28;20510;-65
2021/08/09 14:17:56;;;;;;;2.60;2.00;;;29.60;63.70;;;;;;4994219;28;20457;-65
2021/08/09 14:20:23;;;;;;;2.87;1.87;;;29.70;64.40;;;;;;4994309;28;20460;-66
2021/08/09 14:22:50;;;;;;;2.80;1.60;;;29.80;62.90;;;;;;4994326;28;20454;-66
2021/08/09 14:25:17;;;;;;;1.70;1.40;;;29.70;61.30;;;;;;4997907;28;20824;-66
2021/08/09 14:27:43;;;;;;;2.03;1.93;;;29.50;57.50;;;;;;4998336;28;20461;-66
2021/08/09 14:30:11;;;;;;;1.67;1.57;;;29.40;57.80;;;;;;4998328;28;20818;-66
2021/08/09 14:32:39;;;;;;;2.70;2.00;;;29.60;59.10;;;;;;4998148;28;20478;-65
2021/08/09 14:35:07;;;;;;;2.37;1.50;;;29.60;61.80;;;;;;4997925;28;20458;-65
2021/08/09 14:37:34;;;;;;;2.00;1.90;;;29.60;57.60;;;;;;4998104;28;20457;-65
2021/08/09 14:40:00;;;;;;;2.07;1.53;;;29.70;57.40;;;;;;4997808;28;20480;-66
2021/08/09 14:42:27;;;;;;;2.23;2.03;;;29.70;56.80;;;;;;4997835;28;20549;-66
2021/08/09 14:44:55;;;;;;;1.57;1.47;;;29.20;55.20;;;;;;4998031;28;20453;-66
2021/08/09 14:47:21;;;;;;;1.83;1.73;;;28.80;57.60;;;;;;4997812;28;20461;-66
2021/08/09 14:49:49;;;;;;;2.17;1.50;;;28.80;58.70;;;;;;4997770;28;20472;-66
2021/08/09 14:52:16;;;;;;;1.47;1.37;;;28.90;57.60;;;;;;4997726;28;20496;-67
2021/08/09 14:54:43;;;;;;;1.30;1.20;;;28.70;57.50;;;;;;4997771;28;20457;-66
2021/08/09 14:57:10;;;;;;;2.77;1.57;;;28.60;57.20;;;;;;4997568;28;20458;-66
2021/08/09 14:59:37;;;;;;;1.93;1.80;;;28.10;56.60;;;;;;4997524;28;21093;-67
2021/08/09 15:02:04;;;;;;;1.70;1.60;;;27.80;57.80;;;;;;4997471;28;20481;-66
2021/08/09 15:04:32;;;;;;;1.90;1.80;;;27.60;57.00;;;;;;4997520;28;20457;-66
2021/08/09 15:07:00;;;;;;;1.93;1.83;;;27.30;56.50;;;;;;4997217;28;20453;-66
2021/08/09 15:09:27;;;;;;;2.43;1.50;;;27.30;58.50;;;;;;4997404;28;20950;-66
2021/08/09 15:11:54;;;;;;;2.50;1.80;;;27.30;62.70;;;;;;4997393;28;20484;-66
2021/08/09 15:14:20;;;;;;;2.63;1.57;;;27.50;68.40;;;;;;4997537;28;20453;-66
2021/08/09 15:16:47;;;;;;;2.27;1.63;;;27.60;68.40;;;;;;4997384;28;20982;-66
2021/08/09 15:19:14;;;;;;;3.27;1.53;;;27.80;69.30;;;;;;4996898;28;21016;-66
2021/08/09 15:21:41;;;;;;;2.33;1.40;;;27.90;69.70;;;;;;4996828;28;20477;-66
2021/08/09 15:24:09;;;;;;;2.50;1.80;;;28.00;71.10;;;;;;4997270;28;20449;-66
2021/08/09 15:26:36;;;;;;;3.17;1.60;;;28.00;68.20;;;;;;4997181;28;20453;-66
2021/08/09 15:29:03;;;;;;;2.93;1.60;;;28.00;70.50;;;;;;4997179;28;20454;-66
2021/08/09 15:31:31;;;;;;;1.40;1.40;;;28.10;71.20;;;;;;4996986;28;20470;-66
2021/08/09 15:33:58;;;;;;;1.97;1.70;;;27.80;68.50;;;;;;4996679;28;20552;-66
2021/08/09 15:36:25;;;;;;;7.27;3.53;;;27.40;72.30;;;;;;4996501;28;20461;-66
2021/08/09 15:38:52;;;;;;;3.17;1.83;;;27.50;73.10;;;;;;4996910;28;20466;-66
2021/08/09 15:41:20;;;;;;;1.87;1.47;;;27.80;71.50;;;;;;4996760;28;20477;-66
2021/08/09 15:43:47;;;;;;;3.33;2.00;;;27.90;72.70;;;;;;4996771;28;20450;-66
2021/08/09 15:46:18;;;;;;;1.70;1.60;;;28.10;71.80;;;;;;4996763;28;20480;-66
2021/08/09 15:48:45;;;;;;;1.70;1.60;;;28.20;70.10;;;;;;4996502;28;20911;-66
2021/08/09 15:51:12;;;;;;;2.63;1.90;;;28.20;70.10;;;;;;4996676;28;20953;-66
2021/08/09 15:53:40;;;;;;;3.87;2.80;;;28.10;68.90;;;;;;4996664;28;20536;-66
2021/08/09 15:56:08;;;;;;;1.90;1.80;;;28.10;70.90;;;;;;4996735;28;20513;-66
2021/08/09 15:58:36;;;;;;;2.33;1.97;;;28.00;68.40;;;;;;4996551;28;20457;-66
2021/08/09 16:01:04;;;;;;;1.63;1.50;;;27.80;69.00;;;;;;4996181;28;20489;-66
2021/08/09 16:03:32;;;;;;;10.27;6.13;;;27.60;68.70;;;;;;4996503;28;20462;-66
2021/08/09 16:05:59;;;;;;;5.37;3.50;;;27.50;69.50;;;;;;4997055;28;20457;-66
2021/08/09 16:08:25;;;;;;;4.30;2.87;;;27.40;69.60;;;;;;4996264;28;20823;-66
2021/08/09 16:10:52;;;;;;;2.97;1.90;;;27.30;72.70;;;;;;4996268;28;20474;-66
2021/08/09 16:13:19;;;;;;;3.60;1.87;;;27.30;70.90;;;;;;4996292;28;20457;-66
2021/08/09 16:15:47;;;;;;;1.70;1.60;;;27.20;71.10;;;;;;4996316;28;20497;-66
2021/08/09 16:18:14;;;;;;;1.90;1.60;;;27.10;72.00;;;;;;4996327;28;20453;-66
2021/08/09 16:20:42;;;;;;;4.30;2.17;;;27.00;70.80;;;;;;4996014;28;20482;-66
2021/08/09 16:23:09;;;;;;;2.27;2.00;;;26.90;69.50;;;;;;4996136;28;20815;-66
2021/08/09 16:25:35;;;;;;;2.43;1.90;;;26.70;71.10;;;;;;4996068;28;20460;-66
2021/08/09 16:28:02;;;;;;;2.20;1.40;;;26.60;71.70;;;;;;4995744;28;20853;-66
2021/08/09 16:30:29;;;;;;;1.77;1.60;;;26.50;73.40;;;;;;4995861;28;20454;-66
2021/08/09 16:32:57;;;;;;;2.03;1.80;;;26.30;73.20;;;;;;4995712;28;20499;-66
2021/08/09 16:35:24;;;;;;;2.30;2.10;;;26.20;73.80;;;;;;4995824;28;20821;-66
2021/08/09 16:37:51;;;;;;;1.57;1.50;;;26.00;74.20;;;;;;4995823;28;20485;-66
2021/08/09 16:40:17;;;;;;;4.10;1.80;;;25.80;75.60;;;;;;4995785;28;20488;-66
2021/08/09 16:42:44;;;;;;;2.30;2.10;;;25.70;75.10;;;;;;4995839;28;20534;-66
2021/08/09 16:45:12;;;;;;;2.20;2.00;;;25.60;75.70;;;;;;4996612;28;20815;-66
2021/08/09 16:47:38;;;;;;;20.17;13.97;;;25.50;75.80;;;;;;4995621;28;20457;-66
2021/08/09 16:50:07;;;;;;;3.70;3.40;;;25.30;76.40;;;;;;4995805;28;20460;-66
2021/08/09 16:52:34;;;;;;;3.33;3.03;;;25.30;78.10;;;;;;4995568;28;20485;-66